Time;durP1;ratioP1;P1;durP2;ratioP2;P2;SDS_P1;SDS_P2;PMS_P1;PMS_P2;Temp;Humidity;BMP_temperature;BMP_pressure;BME280_temperature;BME280_humidity;BME280_pressure;Samples;Min_cycle;Max_cycle;Signal;HPM_P1;HPM_P2
2021/07/18 00:01:13;;;;;;;21.05;11.30;;;;;;;17.50;95.25;99400.56;5047513;28;20049;-77
2021/07/18 00:03:40;;;;;;;22.15;10.52;;;;;;;17.38;95.09;99388.63;5053015;28;20210;-77
2021/07/18 00:06:07;;;;;;;21.17;12.63;;;;;;;17.45;95.67;99402.34;5053894;28;20041;-77
2021/07/18 00:08:33;;;;;;;21.67;10.77;;;;;;;17.37;95.76;99388.84;5052975;28;20056;-77
2021/07/18 00:11:00;;;;;;;21.52;11.57;;;;;;;17.25;95.92;99386.00;5053325;28;20049;-77
2021/07/18 00:13:27;;;;;;;20.60;10.30;;;;;;;17.31;95.63;99387.84;5052755;28;20106;-78
2021/07/18 00:15:58;;;;;;;16.75;10.88;;;;;;;17.24;95.23;99379.66;5053535;28;20060;-77
2021/07/18 00:18:25;;;;;;;18.38;11.30;;;;;;;17.22;95.75;99386.44;5050293;28;20054;-77
2021/07/18 00:20:52;;;;;;;18.65;11.30;;;;;;;17.32;95.90;99398.59;5053781;28;20497;-77
2021/07/18 00:23:19;;;;;;;17.02;10.98;;;;;;;17.17;96.27;99387.94;5052485;28;20045;-78
2021/07/18 00:25:46;;;;;;;18.55;11.63;;;;;;;17.17;96.78;99398.09;5052674;28;20051;-78
2021/07/18 00:28:13;;;;;;;14.73;11.18;;;;;;;17.16;96.94;99404.63;5053822;28;20053;-78
2021/07/18 00:30:42;;;;;;;36.85;16.33;;;;;;;17.17;96.74;99406.34;5053630;28;20049;-78
2021/07/18 00:33:12;;;;;;;23.83;11.23;;;;;;;17.11;97.18;99405.31;5052616;28;20496;-77
2021/07/18 00:35:39;;;;;;;15.60;11.38;;;;;;;17.08;96.93;99400.25;5042741;28;20057;-77
2021/07/18 00:38:06;;;;;;;19.95;11.32;;;;;;;16.92;96.48;99398.91;5050930;28;20496;-77
2021/07/18 00:40:33;;;;;;;17.00;11.27;;;;;;;16.76;97.48;99393.91;5052617;28;20476;-77
2021/07/18 00:42:59;;;;;;;15.35;11.20;;;;;;;16.90;97.01;99405.66;5050812;28;20049;-77
2021/07/18 00:45:26;;;;;;;15.43;11.32;;;;;;;16.81;96.87;99399.56;5052466;28;20063;-77
2021/07/18 00:47:53;;;;;;;18.55;10.63;;;;;;;16.66;96.86;99388.88;5052397;28;20049;-78
2021/07/18 00:50:21;;;;;;;18.95;9.68;;;;;;;16.68;96.87;99386.75;5052319;28;20135;-77
2021/07/18 00:52:48;;;;;;;17.10;10.07;;;;;;;16.56;95.84;99394.84;5050446;28;20053;-77
2021/07/18 00:55:15;;;;;;;14.20;9.88;;;;;;;16.68;95.48;99407.84;5048700;28;20095;-77
2021/07/18 00:57:46;;;;;;;16.73;10.35;;;;;;;16.54;94.98;99391.47;5052084;28;20542;-78
2021/07/18 01:00:17;;;;;;;16.63;9.93;;;;;;;16.38;95.46;99409.28;5052297;28;20060;-77
2021/07/18 01:02:45;;;;;;;13.13;8.68;;;;;;;16.43;94.69;99393.00;5052609;28;20122;-77
2021/07/18 01:05:14;;;;;;;17.50;10.15;;;;;;;16.42;94.72;99395.94;5052445;28;20098;-78
2021/07/18 01:07:42;;;;;;;15.77;9.15;;;;;;;16.18;95.61;99397.50;5052639;28;20044;-77
2021/07/18 01:10:11;;;;;;;16.70;9.93;;;;;;;16.25;96.50;99396.44;5052915;28;20041;-77
2021/07/18 01:12:38;;;;;;;15.70;10.07;;;;;;;16.08;96.43;99390.59;5051887;28;20052;-77
2021/07/18 01:15:06;;;;;;;14.63;10.05;;;;;;;16.24;95.36;99389.28;5051740;28;20056;-77
2021/07/18 01:17:33;;;;;;;17.40;9.85;;;;;;;16.02;96.06;99375.00;5052523;28;20045;-77
2021/07/18 01:20:01;;;;;;;17.02;9.65;;;;;;;16.06;97.18;99394.59;5053019;28;20064;-77
2021/07/18 01:22:30;;;;;;;15.68;9.23;;;;;;;16.02;95.71;99394.19;5052058;28;20188;-78
2021/07/18 01:24:57;;;;;;;17.23;10.02;;;;;;;15.92;96.04;99391.03;5033069;28;20049;-77
2021/07/18 01:27:25;;;;;;;16.92;9.25;;;;;;;15.93;95.72;99396.31;5048583;28;20477;-77
2021/07/18 01:29:51;;;;;;;17.15;9.15;;;;;;;15.83;96.55;99390.44;5044236;28;20114;-78
2021/07/18 01:32:18;;;;;;;14.73;8.43;;;;;;;15.76;95.78;99384.06;5052658;28;20044;-78
2021/07/18 01:34:45;;;;;;;15.55;9.57;;;;;;;15.84;96.18;99389.38;5052198;28;20091;-77
2021/07/18 01:37:13;;;;;;;15.90;9.48;;;;;;;15.70;95.25;99377.56;5052089;28;20075;-78
2021/07/18 01:39:41;;;;;;;13.48;8.77;;;;;;;15.63;95.57;99376.72;5052251;28;20049;-78
2021/07/18 01:42:08;;;;;;;18.35;10.90;;;;;;;15.71;96.31;99397.59;5052209;28;20044;-78
2021/07/18 01:44:35;;;;;;;16.52;9.65;;;;;;;15.74;95.60;99389.78;5046565;28;20045;-78
2021/07/18 01:47:02;;;;;;;15.65;9.73;;;;;;;15.60;95.69;99398.22;5047420;28;20045;-78
2021/07/18 01:49:28;;;;;;;13.38;8.77;;;;;;;15.54;96.00;99408.97;5051638;28;20056;-78
2021/07/18 01:51:55;;;;;;;14.30;9.55;;;;;;;15.44;96.96;99408.56;5051914;28;20098;-78
2021/07/18 01:54:22;;;;;;;17.52;10.30;;;;;;;15.37;96.79;99397.63;5051551;28;20048;-78
2021/07/18 01:56:50;;;;;;;15.20;10.30;;;;;;;15.35;97.78;99396.97;5052327;28;20045;-78
2021/07/18 01:59:18;;;;;;;14.98;9.80;;;;;;;15.18;97.24;99382.84;5052310;28;20049;-78
2021/07/18 02:01:45;;;;;;;18.02;9.63;;;;;;;15.31;96.55;99370.19;5042388;28;20069;-78
2021/07/18 02:04:13;;;;;;;14.50;9.48;;;;;;;15.30;95.56;99379.50;5043491;28;20083;-78
2021/07/18 02:06:40;;;;;;;16.83;10.43;;;;;;;15.19;97.75;99390.03;5051052;28;20056;-78
2021/07/18 02:09:08;;;;;;;14.98;9.75;;;;;;;15.19;97.31;99394.63;5050584;28;20435;-78
2021/07/18 02:11:35;;;;;;;23.80;13.13;;;;;;;15.20;98.26;99393.59;5050948;28;20045;-78
2021/07/18 02:14:04;;;;;;;16.38;10.65;;;;;;;15.26;97.09;99402.88;5049723;28;20049;-78
2021/07/18 02:16:32;;;;;;;19.80;9.67;;;;;;;15.12;97.19;99389.16;5050164;28;20044;-78
2021/07/18 02:19:06;;;;;;;19.88;9.40;;;;;;;15.02;96.80;99386.84;5050189;28;20291;-78
2021/07/18 02:21:33;;;;;;;13.70;9.02;;;;;;;14.99;96.12;99384.50;5050619;28;20382;-78
2021/07/18 02:24:00;;;;;;;14.07;9.48;;;;;;;14.97;96.34;99383.03;5049783;28;20045;-78
2021/07/18 02:26:28;;;;;;;14.48;9.18;;;;;;;14.88;96.23;99387.03;5047252;28;20386;-78
2021/07/18 02:28:55;;;;;;;13.95;8.75;;;;;;;14.84;96.20;99392.06;5050516;28;20049;-78
2021/07/18 02:31:23;;;;;;;14.07;9.27;;;;;;;14.72;98.25;99396.47;5050022;28;20040;-78
2021/07/18 02:33:49;;;;;;;20.13;9.52;;;;;;;14.85;98.11;99407.44;5049674;28;20057;-78
2021/07/18 02:36:16;;;;;;;15.82;8.10;;;;;;;14.81;98.24;99412.50;5049946;28;20040;-78
2021/07/18 02:38:43;;;;;;;16.55;8.05;;;;;;;14.78;97.28;99401.09;5050053;28;20053;-78
2021/07/18 02:41:11;;;;;;;14.75;8.63;;;;;;;14.76;95.71;99408.69;5050088;28;20045;-78
2021/07/18 02:43:38;;;;;;;13.43;8.70;;;;;;;14.67;95.62;99421.69;5047609;28;20094;-78
2021/07/18 02:46:06;;;;;;;13.18;8.32;;;;;;;14.62;95.54;99416.00;5051025;28;20045;-78
2021/07/18 02:48:35;;;;;;;14.23;8.00;;;;;;;14.39;96.32;99405.34;5050294;28;20045;-78
2021/07/18 02:51:01;;;;;;;12.23;7.78;;;;;;;14.38;96.63;99410.00;5050899;28;20138;-78
2021/07/18 02:53:28;;;;;;;12.65;8.10;;;;;;;14.46;97.01;99425.38;5050568;28;20041;-78
2021/07/18 02:55:55;;;;;;;16.33;9.27;;;;;;;14.44;97.59;99413.81;5051763;28;20464;-78
2021/07/18 02:58:21;;;;;;;11.68;7.40;;;;;;;14.38;97.46;99404.53;5048582;28;20111;-78
2021/07/18 03:00:49;;;;;;;9.95;7.30;;;;;;;14.50;96.61;99415.72;5051438;28;20106;-78
2021/07/18 03:03:16;;;;;;;15.13;8.73;;;;;;;14.36;96.66;99416.69;5050866;28;20060;-78
2021/07/18 03:05:44;;;;;;;18.42;7.75;;;;;;;14.33;96.51;99407.00;5051480;28;20416;-78
2021/07/18 03:08:11;;;;;;;14.85;7.43;;;;;;;14.20;97.01;99398.78;5051195;28;20049;-78
2021/07/18 03:10:37;;;;;;;14.30;7.82;;;;;;;14.27;96.76;99419.63;5051181;28;20052;-78
2021/07/18 03:13:07;;;;;;;10.20;7.40;;;;;;;14.27;96.34;99419.63;5051186;28;20404;-78
2021/07/18 03:15:34;;;;;;;12.27;6.97;;;;;;;14.40;95.21;99415.25;5050897;28;20049;-78
2021/07/18 03:18:01;;;;;;;12.75;8.30;;;;;;;14.29;95.50;99425.72;5055424;28;20060;-79
2021/07/18 03:20:29;;;;;;;15.05;7.22;;;;;;;14.44;95.74;99435.69;5054880;28;20451;-79
2021/07/18 03:22:57;;;;;;;12.25;8.10;;;;;;;14.25;96.64;99429.06;5054234;28;20136;-79
2021/07/18 03:25:23;;;;;;;15.82;7.93;;;;;;;14.30;97.17;99430.16;5054506;28;20052;-78
2021/07/18 03:27:50;;;;;;;12.27;7.35;;;;;;;14.29;97.50;99425.72;5054782;28;20579;-79
2021/07/18 03:30:22;;;;;;;12.20;7.25;;;;;;;14.18;97.79;99417.25;5054097;28;20110;-79
2021/07/18 03:32:49;;;;;;;8.50;6.45;;;;;;;14.09;96.87;99414.69;5053149;28;20052;-79
2021/07/18 03:35:16;;;;;;;8.75;6.18;;;;;;;14.20;96.62;99431.56;5055275;28;20118;-79
2021/07/18 03:37:43;;;;;;;12.95;6.40;;;;;;;14.09;97.33;99442.03;5054426;28;20045;-79
2021/07/18 03:40:14;;;;;;;11.38;7.07;;;;;;;14.12;96.40;99438.03;5055147;28;20048;-79
2021/07/18 03:42:41;;;;;;;10.73;6.75;;;;;;;14.15;95.77;99440.34;5054593;28;20041;-79
2021/07/18 03:45:09;;;;;;;14.95;7.43;;;;;;;14.21;95.77;99425.03;5053768;28;20053;-79
2021/07/18 03:47:36;;;;;;;14.02;7.13;;;;;;;14.14;95.80;99434.06;5054751;28;20053;-79
2021/07/18 03:50:03;;;;;;;11.43;6.82;;;;;;;14.08;95.09;99423.94;5052028;28;20059;-78
2021/07/18 03:52:30;;;;;;;12.60;7.07;;;;;;;14.08;95.13;99443.06;5054295;28;20447;-79
2021/07/18 03:54:57;;;;;;;12.43;6.85;;;;;;;14.01;95.70;99436.72;5054255;28;20389;-78
2021/07/18 03:57:25;;;;;;;11.23;6.85;;;;;;;13.90;95.87;99440.84;5054415;28;20410;-79
2021/07/18 03:59:52;;;;;;;11.63;7.45;;;;;;;13.92;96.04;99441.47;5054781;28;20106;-79
2021/07/18 04:02:19;;;;;;;14.10;6.80;;;;;;;13.97;96.00;99438.13;5054423;28;20052;-79
2021/07/18 04:04:45;;;;;;;11.45;7.32;;;;;;;14.03;96.38;99439.25;5051500;28;20043;-78
2021/07/18 04:07:12;;;;;;;13.13;6.68;;;;;;;14.01;96.26;99436.72;5054254;28;20102;-79
2021/07/18 04:09:39;;;;;;;12.93;6.93;;;;;;;14.02;96.18;99440.31;5054136;28;20040;-79
2021/07/18 04:12:06;;;;;;;12.82;7.45;;;;;;;14.03;95.73;99425.56;5054135;28;20452;-78
2021/07/18 04:14:34;;;;;;;15.65;7.35;;;;;;;14.29;95.23;99449.50;5054180;28;20128;-79
2021/07/18 04:17:01;;;;;;;9.35;6.70;;;;;;;14.22;95.54;99437.69;5053659;28;20045;-79
2021/07/18 04:19:28;;;;;;;10.32;7.28;;;;;;;14.23;95.79;99450.31;5054324;28;20049;-79
2021/07/18 04:21:54;;;;;;;10.80;7.45;;;;;;;14.29;96.08;99458.53;5053746;28;20048;-79
2021/07/18 04:24:21;;;;;;;13.80;7.68;;;;;;;14.30;96.78;99445.69;5039287;28;20118;-79
2021/07/18 04:26:48;;;;;;;12.95;7.18;;;;;;;14.39;96.77;99460.91;5053959;28;20069;-79
2021/07/18 04:29:15;;;;;;;14.10;8.10;;;;;;;14.40;96.29;99443.44;5053046;28;20045;-79
2021/07/18 04:31:43;;;;;;;15.02;7.47;;;;;;;14.50;96.16;99457.59;5054056;28;20138;-79
2021/07/18 04:34:09;;;;;;;16.98;7.53;;;;;;;14.44;97.10;99457.56;5053231;28;20386;-78
2021/07/18 04:36:36;;;;;;;17.70;6.30;;;;;;;14.32;96.95;99449.94;5053929;28;20099;-79
2021/07/18 04:39:03;;;;;;;14.38;6.80;;;;;;;14.42;96.67;99449.56;5050295;28;20504;-79
2021/07/18 04:41:30;;;;;;;8.60;6.28;;;;;;;14.48;96.67;99443.28;5053737;28;20106;-78
2021/07/18 04:43:57;;;;;;;8.32;6.45;;;;;;;14.62;96.24;99452.41;5052923;28;20186;-79
2021/07/18 04:46:24;;;;;;;11.48;6.50;;;;;;;14.59;96.46;99439.13;5053833;28;20538;-79
2021/07/18 04:48:52;;;;;;;22.58;9.20;;;;;;;14.79;96.56;99463.00;5053513;28;20053;-79
2021/07/18 04:51:19;;;;;;;13.98;6.63;;;;;;;14.86;96.66;99455.66;5054135;28;20049;-79
2021/07/18 04:53:45;;;;;;;11.45;7.00;;;;;;;14.90;96.41;99453.34;5053198;28;20056;-79
2021/07/18 04:56:12;;;;;;;7.30;5.63;;;;;;;14.83;96.70;99456.09;5051456;28;20057;-79
2021/07/18 04:58:39;;;;;;;9.60;6.13;;;;;;;15.01;96.11;99455.50;5052997;28;20110;-78
2021/07/18 05:01:07;;;;;;;11.32;6.30;;;;;;;15.10;95.97;99453.38;5053409;28;20114;-79
2021/07/18 05:03:34;;;;;;;10.27;5.85;;;;;;;15.14;96.09;99460.97;5052940;28;20088;-79
2021/07/18 05:06:05;;;;;;;10.20;5.95;;;;;;;15.33;95.66;99467.56;5052867;28;20511;-79
2021/07/18 05:08:32;;;;;;;8.77;5.30;;;;;;;15.39;95.85;99463.97;5053217;28;20155;-79
2021/07/18 05:10:59;;;;;;;11.30;5.68;;;;;;;15.79;93.82;99454.94;5052823;28;20053;-79
2021/07/18 05:13:25;;;;;;;12.50;6.05;;;;;;;16.44;91.21;99462.44;5037423;28;20053;-79
2021/07/18 05:15:52;;;;;;;11.30;6.00;;;;;;;16.97;86.86;99443.00;5052247;28;20056;-79
2021/07/18 05:18:19;;;;;;;10.48;5.13;;;;;;;17.49;83.58;99459.38;5052760;28;20110;-79
2021/07/18 05:20:46;;;;;;;8.65;5.10;;;;;;;17.90;80.99;99448.06;5053059;28;20053;-79
2021/07/18 05:23:14;;;;;;;7.82;4.57;;;;;;;18.39;79.51;99457.28;5051848;28;20443;-79
2021/07/18 05:25:41;;;;;;;12.18;4.97;;;;;;;18.68;78.60;99469.47;5053114;28;20044;-79
2021/07/18 05:28:09;;;;;;;4.75;4.18;;;;;;;18.80;76.64;99468.66;5052455;28;20052;-79
2021/07/18 05:30:36;;;;;;;7.53;4.72;;;;;;;18.83;77.65;99476.47;5037837;28;20777;-80
2021/07/18 05:33:02;;;;;;;8.00;4.57;;;;;;;18.93;76.74;99463.03;5042043;28;20064;-79
2021/07/18 05:35:29;;;;;;;12.02;4.63;;;;;;;19.10;74.22;99458.56;5052860;28;20045;-79
2021/07/18 05:37:56;;;;;;;7.00;4.03;;;;;;;19.05;74.25;99458.41;5052489;28;20049;-80
2021/07/18 05:40:24;;;;;;;6.65;3.58;;;;;;;19.28;71.38;99470.56;5052698;28;20164;-79
2021/07/18 05:42:51;;;;;;;6.50;3.63;;;;;;;19.36;71.70;99469.41;5052018;28;20166;-79
2021/07/18 05:45:18;;;;;;;9.27;4.05;;;;;;;19.50;71.96;99459.03;5051972;28;20052;-79
2021/07/18 05:47:44;;;;;;;9.55;3.10;;;;;;;19.56;68.35;99469.94;5051130;28;20048;-79
2021/07/18 05:50:12;;;;;;;4.97;3.08;;;;;;;19.56;66.61;99460.84;5051948;28;20467;-79
2021/07/18 05:52:40;;;;;;;10.63;2.85;;;;;;;19.95;66.92;99458.53;5052185;28;20045;-79
2021/07/18 05:55:08;;;;;;;7.35;2.72;;;;;;;19.95;68.34;99456.59;5051931;28;20056;-79
2021/07/18 05:57:36;;;;;;;5.65;3.20;;;;;;;20.22;64.02;99466.28;5051763;28;20461;-79
2021/07/18 06:00:05;;;;;;;6.45;3.10;;;;;;;20.28;64.16;99462.59;5052056;28;20064;-79
2021/07/18 06:02:32;;;;;;;5.18;2.47;;;;;;;20.46;62.60;99461.59;5032350;28;20057;-79
2021/07/18 06:04:59;;;;;;;5.65;2.45;;;;;;;20.50;62.58;99476.59;5045643;28;20207;-79
2021/07/18 06:07:25;;;;;;;9.20;1.88;;;;;;;20.75;63.10;99473.56;5051896;28;20098;-79
2021/07/18 06:09:53;;;;;;;3.13;2.17;;;;;;;20.58;62.72;99469.84;5052167;28;20059;-79
2021/07/18 06:12:20;;;;;;;5.97;2.25;;;;;;;20.94;60.84;99478.91;5051843;28;20045;-79
2021/07/18 06:14:48;;;;;;;7.45;2.17;;;;;;;21.22;61.70;99481.69;5051615;28;20539;-79
2021/07/18 06:17:15;;;;;;;4.50;2.22;;;;;;;21.20;60.10;99471.97;5051472;28;20094;-79
2021/07/18 06:19:42;;;;;;;5.47;2.25;;;;;;;21.06;59.81;99492.69;5051757;28;20052;-79
2021/07/18 06:22:09;;;;;;;3.58;2.05;;;;;;;21.21;59.58;99481.94;5049966;28;20057;-78
2021/07/18 06:24:36;;;;;;;3.70;1.63;;;;;;;21.39;58.90;99478.97;5051035;28;20056;-79
2021/07/18 06:27:05;;;;;;;4.97;1.88;;;;;;;21.47;56.84;99474.09;5051927;28;20049;-78
2021/07/18 06:29:32;;;;;;;4.40;1.83;;;;;;;21.36;56.42;99485.00;5051798;28;20483;-78
2021/07/18 06:32:00;;;;;;;4.20;1.50;;;;;;;21.29;57.72;99492.63;5051987;28;20474;-79
2021/07/18 06:34:27;;;;;;;6.30;1.90;;;;;;;21.25;57.66;99480.38;5050734;28;20044;-78
2021/07/18 06:36:54;;;;;;;6.13;1.83;;;;;;;21.56;56.10;99489.28;5050052;28;20095;-78
2021/07/18 06:39:21;;;;;;;4.95;1.50;;;;;;;21.71;56.30;99494.22;5047454;28;20056;-78
2021/07/18 06:41:48;;;;;;;6.00;1.65;;;;;;;21.92;56.54;99500.94;5050653;28;20463;-78
2021/07/18 06:44:15;;;;;;;8.48;1.27;;;;;;;21.79;55.12;99499.34;5050412;28;20090;-78
2021/07/18 06:46:41;;;;;;;4.55;1.63;;;;;;;22.13;54.75;99482.75;5048909;28;20102;-78
2021/07/18 06:49:10;;;;;;;5.30;1.60;;;;;;;22.44;54.66;99481.25;5050169;28;20111;-78
2021/07/18 06:51:37;;;;;;;8.05;1.45;;;;;;;22.66;54.35;99485.16;5052246;28;20102;-78
2021/07/18 06:54:04;;;;;;;3.95;1.20;;;;;;;22.92;53.53;99481.63;5054578;28;20045;-78
2021/07/18 06:56:31;;;;;;;2.88;1.38;;;;;;;22.55;52.96;99485.03;5053009;28;20048;-78
2021/07/18 06:58:58;;;;;;;7.63;1.42;;;;;;;21.99;54.88;99475.84;5054374;28;20045;-78
2021/07/18 07:01:25;;;;;;;3.75;1.42;;;;;;;22.23;54.66;99479.28;5054665;28;20045;-78
2021/07/18 07:03:52;;;;;;;3.28;1.40;;;;;;;22.61;54.13;99478.47;5053730;28;20481;-78
2021/07/18 07:06:20;;;;;;;2.50;1.50;;;;;;;22.73;52.62;99483.88;5054937;28;20052;-78
2021/07/18 07:08:47;;;;;;;1.98;1.13;;;;;;;22.55;52.64;99471.19;5053609;28;20045;-78
2021/07/18 07:11:14;;;;;;;3.88;1.60;;;;;;;23.20;52.33;99487.22;5052098;28;20103;-78
2021/07/18 07:13:40;;;;;;;4.25;1.40;;;;;;;23.01;53.34;99484.78;5052469;28;20060;-78
2021/07/18 07:16:07;;;;;;;2.35;1.20;;;;;;;23.22;51.17;99487.81;5055322;28;20057;-78
2021/07/18 07:18:34;;;;;;;7.45;2.95;;;;;;;23.35;51.85;99481.00;5055301;28;20041;-78
2021/07/18 07:21:01;;;;;;;7.65;1.25;;;;;;;23.12;52.05;99486.63;5055300;28;20045;-78
2021/07/18 07:23:29;;;;;;;3.00;1.30;;;;;;;22.71;52.78;99493.56;5054995;28;20057;-78
2021/07/18 07:25:56;;;;;;;2.08;1.15;;;;;;;22.82;52.33;99487.03;5055290;28;20118;-77
2021/07/18 07:28:22;;;;;;;3.90;1.42;;;;;;;23.06;51.45;99490.38;5045701;28;20056;-78
2021/07/18 07:30:49;;;;;;;2.47;1.33;;;;;;;23.28;51.35;99495.91;5051623;28;20049;-78
2021/07/18 07:33:16;;;;;;;7.10;1.25;;;;;;;23.42;50.71;99489.97;5053772;28;20045;-78
2021/07/18 07:35:43;;;;;;;5.38;1.55;;;;;;;23.45;51.71;99497.75;5053792;28;20049;-79
2021/07/18 07:38:10;;;;;;;8.00;1.48;;;;;;;23.62;50.13;99478.22;5053574;28;20037;-78
2021/07/18 07:40:38;;;;;;;4.97;1.52;;;;;;;23.61;50.33;99474.63;5053573;28;20041;-78
2021/07/18 07:43:06;;;;;;;3.97;1.20;;;;;;;23.71;50.57;99481.34;5052944;28;20115;-78
2021/07/18 07:45:33;;;;;;;6.85;1.40;;;;;;;24.12;50.14;99493.66;5051813;28;21552;-78
2021/07/18 07:48:00;;;;;;;6.35;1.50;;;;;;;24.29;49.32;99476.84;5053561;28;20057;-78
2021/07/18 07:50:27;;;;;;;4.93;1.48;;;;;;;23.92;50.98;99490.72;5054171;28;20554;-78
2021/07/18 07:52:54;;;;;;;5.70;1.40;;;;;;;23.90;50.54;99487.38;5046281;28;20075;-78
2021/07/18 07:55:20;;;;;;;8.20;1.50;;;;;;;23.53;51.98;99491.75;5041954;28;20061;-78
2021/07/18 07:57:48;;;;;;;2.80;1.10;;;;;;;23.81;51.60;99482.28;5049522;28;20489;-77
2021/07/18 08:00:19;;;;;;;4.18;1.30;;;;;;;23.45;52.37;99487.50;5054620;28;20114;-78
2021/07/18 08:02:49;;;;;;;4.28;1.40;;;;;;;23.99;52.01;99492.16;5040081;28;20050;-78
2021/07/18 08:05:17;;;;;;;1.95;1.48;;;;;;;23.94;51.77;99485.75;5054875;28;20094;-78
2021/07/18 08:07:44;;;;;;;4.18;1.73;;;;;;;23.35;52.46;99483.78;5054390;28;20056;-78
2021/07/18 08:10:14;;;;;;;5.68;1.40;;;;;;;23.53;52.34;99488.13;5053390;28;20049;-78
2021/07/18 08:12:41;;;;;;;6.03;1.23;;;;;;;23.60;52.83;99483.19;5053680;28;20110;-78
2021/07/18 08:15:12;;;;;;;7.10;1.60;;;;;;;23.63;53.18;99471.56;5053474;28;20098;-78
2021/07/18 08:17:39;;;;;;;4.80;1.42;;;;;;;23.54;51.94;99479.53;5054282;28;20049;-78
2021/07/18 08:20:07;;;;;;;2.35;1.17;;;;;;;23.35;53.24;99478.22;5048018;28;20071;-78
2021/07/18 08:22:34;;;;;;;8.65;1.55;;;;;;;23.20;54.42;99474.22;5054139;28;20409;-78
2021/07/18 08:25:01;;;;;;;2.50;1.38;;;;;;;23.27;54.42;99491.47;5053252;28;20053;-78
2021/07/18 08:27:28;;;;;;;3.30;1.40;;;;;;;23.15;54.66;99480.53;5053872;28;20049;-78
2021/07/18 08:29:54;;;;;;;4.30;1.48;;;;;;;23.28;54.20;99482.06;5053436;28;20044;-78
2021/07/18 08:32:22;;;;;;;4.03;1.42;;;;;;;23.50;54.26;99484.78;5054034;28;20049;-78
2021/07/18 08:34:49;;;;;;;3.45;1.35;;;;;;;23.47;54.22;99488.09;5051675;28;20098;-78
2021/07/18 08:37:16;;;;;;;5.85;1.73;;;;;;;23.53;54.93;99464.00;5052636;28;20041;-78
2021/07/18 08:39:42;;;;;;;4.00;1.45;;;;;;;23.40;55.26;99475.53;5053260;28;20109;-78
2021/07/18 08:42:10;;;;;;;3.95;1.60;;;;;;;23.40;55.15;99476.34;5053330;28;20106;-78
2021/07/18 08:44:36;;;;;;;4.40;1.38;;;;;;;23.39;55.30;99468.28;5053361;28;20076;-78
2021/07/18 08:47:04;;;;;;;5.57;2.30;;;;;;;23.46;54.20;99464.19;5052703;28;20083;-78
2021/07/18 08:49:32;;;;;;;6.32;1.92;;;;;;;23.30;55.64;99476.25;5053607;28;20045;-78
2021/07/18 08:51:59;;;;;;;5.45;1.73;;;;;;;23.29;54.91;99471.78;5049161;28;20100;-78
2021/07/18 08:54:27;;;;;;;8.65;1.65;;;;;;;23.33;55.81;99454.38;5047032;28;20048;-78
2021/07/18 08:56:56;;;;;;;2.17;1.27;;;;;;;23.66;54.71;99471.03;5052769;28;20110;-78
2021/07/18 08:59:23;;;;;;;4.80;1.70;;;;;;;24.00;54.31;99451.38;5053064;28;20374;-78
2021/07/18 09:01:49;;;;;;;4.90;2.03;;;;;;;24.02;53.58;99458.31;5053199;28;20052;-78
2021/07/18 09:04:16;;;;;;;9.15;2.13;;;;;;;23.88;55.13;99465.44;5051947;28;20496;-78
2021/07/18 09:06:46;;;;;;;7.72;1.70;;;;;;;24.06;53.60;99461.41;5052899;28;20497;-78
2021/07/18 09:09:16;;;;;;;5.70;1.70;;;;;;;23.88;54.67;99451.56;5037894;28;20065;-78
2021/07/18 09:11:43;;;;;;;;;;;;;;;24.16;55.74;99461.50;5033657;28;20046;-78
2021/07/18 09:14:14;;;;;;;3.10;1.60;;;;;;;24.02;54.83;99447.22;5032140;28;20426;-78
2021/07/18 09:16:43;;;;;;;4.53;1.80;;;;;;;23.72;53.85;99441.41;5051370;28;20405;-78
2021/07/18 09:19:25;;;;;;;5.47;1.83;;;;;;;23.69;55.17;99437.22;5052844;28;20045;-78
2021/07/18 09:22:19;;;;;;;5.40;1.77;;;;;;;23.62;56.21;99445.78;5052544;28;20048;-78
2021/07/18 09:24:49;;;;;;;4.35;1.33;;;;;;;23.94;55.77;99444.94;5052078;28;20095;-78
2021/07/18 09:27:19;;;;;;;3.75;1.40;;;;;;;24.16;55.24;99436.50;5051007;28;20049;-78
2021/07/18 09:29:50;;;;;;;7.70;1.58;;;;;;;24.37;54.20;99448.56;5053031;28;20489;-78
2021/07/18 09:32:29;;;;;;;6.32;1.90;;;;;;;24.39;53.76;99445.50;5052368;28;20049;-78
2021/07/18 09:35:00;;;;;;;8.45;1.50;;;;;;;24.14;52.83;99423.97;5052277;28;20107;-78
2021/07/18 09:37:33;;;;;;;3.90;1.65;;;;;;;23.84;54.68;99436.50;5052638;28;20436;-78
2021/07/18 09:40:02;;;;;;;7.65;1.70;;;;;;;24.10;53.95;99420.03;5051941;28;20048;-78
2021/07/18 09:42:47;;;;;;;6.93;2.08;;;;;;;24.28;54.30;99430.69;5044331;28;20049;-78
2021/07/18 09:45:17;;;;;;;5.53;1.70;;;;;;;24.35;54.31;99445.19;5031928;28;20053;-78
2021/07/18 09:48:04;;;;;;;6.57;1.98;;;;;;;24.19;53.19;99430.41;5032437;28;20079;-78
2021/07/18 09:50:38;;;;;;;5.05;1.90;;;;;;;24.48;53.12;99431.91;5046264;28;20053;-78
2021/07/18 09:53:12;;;;;;;4.60;2.00;;;;;;;24.35;53.66;99436.03;5052170;28;20064;-78
2021/07/18 09:55:39;;;;;;;9.77;1.90;;;;;;;24.30;52.36;99425.72;5051238;28;20048;-78
2021/07/18 09:58:06;;;;;;;5.32;2.35;;;;;;;24.14;53.27;99430.34;5049185;28;20405;-78
2021/07/18 10:00:41;;;;;;;5.10;1.70;;;;;;;24.10;52.27;99420.88;5038040;28;20413;-79
2021/07/18 10:03:13;;;;;;;5.50;1.88;;;;;;;24.15;52.21;99428.44;5051945;28;20056;-78
2021/07/18 10:05:41;;;;;;;4.53;1.63;;;;;;;24.16;54.67;99435.63;5051227;28;20102;-78
2021/07/18 10:08:10;;;;;;;6.82;1.55;;;;;;;24.48;52.26;99421.66;5051915;28;20110;-78
2021/07/18 10:10:39;;;;;;;5.22;1.88;;;;;;;24.34;52.07;99417.69;5051361;28;20045;-79
2021/07/18 10:13:07;;;;;;;6.28;1.95;;;;;;;24.55;51.66;99413.06;5051468;28;20118;-78
2021/07/18 10:15:34;;;;;;;8.05;1.85;;;;;;;24.36;53.81;99404.38;5051658;28;20049;-78
2021/07/18 10:18:01;;;;;;;10.23;1.88;;;;;;;24.58;53.10;99420.03;5038857;28;20463;-78
2021/07/18 10:20:28;;;;;;;1.45;1.15;;;;;;;24.59;52.40;99419.78;5050499;28;20056;-79
2021/07/18 10:22:55;;;;;;;5.60;1.85;;;;;;;24.60;52.03;99415.91;5050331;28;20049;-79
2021/07/18 10:25:25;;;;;;;6.85;2.10;;;;;;;24.48;52.92;99406.91;5050454;28;20053;-79
2021/07/18 10:27:52;;;;;;;;;;;;;;;24.91;51.73;99410.44;5052058;28;20110;-79
2021/07/18 10:30:21;;;;;;;6.28;2.20;;;;;;;25.14;51.57;99398.00;5050099;28;19978;-78
2021/07/18 10:32:51;;;;;;;3.70;1.52;;;;;;;25.06;52.06;99409.66;5045314;28;20398;-79
2021/07/18 10:35:22;;;;;;;5.53;1.50;;;;;;;25.20;52.18;99408.00;5043436;28;20045;-78
2021/07/18 10:37:49;;;;;;;3.33;1.80;;;;;;;25.03;52.15;99402.69;5051357;28;20572;-78
2021/07/18 10:40:21;;;;;;;10.68;2.08;;;;;;;25.05;51.43;99406.03;5049712;28;20554;-80
2021/07/18 10:42:50;;;;;;;4.20;1.85;;;;;;;25.22;51.21;99399.41;5050628;28;20101;-77
2021/07/18 10:45:19;;;;;;;6.57;1.47;;;;;;;25.32;50.21;99407.75;5050554;28;20095;-77
2021/07/18 10:47:58;;;;;;;4.88;1.52;;;;;;;25.28;50.76;99403.84;5051144;28;20468;-77
2021/07/18 10:50:47;;;;;;;7.65;2.08;;;;;;;25.71;50.70;99396.06;5036638;28;20458;-77
2021/07/18 10:53:20;;;;;;;3.47;1.75;;;;;;;25.30;50.54;99387.72;5050511;28;20057;-77
2021/07/18 10:55:47;;;;;;;8.98;2.25;;;;;;;25.57;49.99;99398.59;5050958;28;20415;-78
2021/07/18 10:58:51;;;;;;;2.88;1.92;;;;;;;25.54;50.47;99392.75;5050047;28;20107;-77
2021/07/18 11:01:37;;;;;;;5.43;2.50;;;;;;;25.47;49.65;99392.19;5050838;28;20045;-78
2021/07/18 11:04:06;;;;;;;4.57;2.40;;;;;;;25.56;49.09;99368.25;5050706;28;20077;-77
2021/07/18 11:06:35;;;;;;;2.92;2.03;;;;;;;25.85;49.18;99362.94;5048852;28;20068;-78
2021/07/18 11:09:14;;;;;;;4.30;1.80;;;;;;;26.27;48.48;99380.41;5030928;28;20046;-77
2021/07/18 11:11:42;;;;;;;6.82;2.17;;;;;;;26.27;47.73;99386.81;5030926;28;20104;-78
2021/07/18 11:14:27;;;;;;;7.25;2.25;;;;;;;26.18;49.45;99368.19;5048773;28;20183;-77
2021/07/18 11:16:56;;;;;;;5.95;2.35;;;;;;;26.36;47.75;99380.66;5050913;28;20057;-79
2021/07/18 11:19:57;;;;;;;7.85;2.75;;;;;;;26.23;48.10;99387.69;5050655;28;20049;-77
2021/07/18 11:23:01;;;;;;;4.85;2.30;;;;;;;26.30;49.23;99379.84;5028204;28;20140;-78
2021/07/18 11:25:49;;;;;;;3.90;2.30;;;;;;;26.43;47.04;99358.91;5050304;28;20053;-79
2021/07/18 11:28:49;;;;;;;3.70;2.70;;;;;;;26.26;47.87;99370.41;5050478;28;20515;-78
2021/07/18 11:31:21;;;;;;;7.25;3.28;;;;;;;26.04;47.22;99367.94;5049375;28;20045;-78
2021/07/18 11:34:15;;;;;;;6.07;3.08;;;;;;;26.19;47.68;99367.06;5050407;28;20053;-79
2021/07/18 11:37:05;;;;;;;6.07;3.33;;;;;;;26.35;47.78;99359.50;5046502;28;20095;-79